Aérodrome :
LOGIN :

S'inscrire | Disclaimer

   EN    FR    IT 

 










Légende :    VFR   VFR Marginal   IFR   IFR Intensif   IFR Très Intensif
Visi : 
Plafond : 
>= 8 km
>= 3000ft
5 à 8 km
1000 à 3000 ft
1500m à 5 km
500 à 1000 ft
800 à 1500m
200 à 500 ft
< 800m
< 200 ft
Symboles :   Orages  Brouillard  Fortes neiges  Fortes précipitations  Vent > 20 kt
SIGMETs :   Divers  Orages  Givrage  Turbulence  Onde Orograph.  Cendres Volcan.






- Altitude de l'aérodrome : 826 ft
- Code IATA : CWC


UKLN - Chernivtsi International

DERNIER METAR :
  • 240600Z 31010G17MPS 270V350 9999 BKN020CB 06/02 Q1002 R33/290260 NOSIG

METARs EXPIRÉS :
  • 240530Z 30012G21MPS 250V340 9999 SCT027CB 06/02 Q1001 R33/290260 NOSIG
  • 240526Z 30012G21MPS 250V340 9999 SCT027CB 06/02 Q1001 R33/290260 NOSIG
  • 240500Z 30010G17MPS 270V350 9999 SCT///CB 06/02 Q1000 R33/290260 NOSIG
  • 240447Z 30012G20MPS 230V360 5000 -SHRA BKN025CB 05/03 Q1000 R33/290260 NOSIG
  • 240428Z 32015G25MPS 290V360 2400 -SHRA BKN007 BKN///CB 06/02 Q1000 R33/290260 NOSIG
  • 240400Z 27008G17MPS 200V300 9999 SCT034CB 10/01 Q0998 R33/290260 NOSIG
  • 240330Z 26007G13MPS 210V300 9999 SCT///CB 09/03 Q0998 R33/290260 NOSIG

TAF COR TAF UKLN
Valide du 24 à 06h jusqu'au 24 à 15h UTC


240515Z 2406/2415 28009G14MPS 9999 BKN020CB TX06/2406Z TN05/2415Z
TEMPO 2406/2415 30023G28MPS 2100 -SHRA BKN005 BKN012CB



MET'MAP, la Météo Aéronautique d'un coup d'oeil ! - Copyright ORBIFLY Décembre 2007 - Disclaimer

ORBIFLY MET'MAP TEAM :

Programmation & Développement : Alexandra Zaïnal
Sur une idée originale de : Baudouin d'Aumeries
Assistance à la programmation : Marc-Olivier Méhu
Soutien technique & logistique : Manuel Goepfert

Contact : metmap@orbifly.com




SOURCES & CREDITS :

   NOAA